Time;durP1;ratioP1;P1;durP2;ratioP2;P2;SDS_P1;SDS_P2;PMS_P1;PMS_P2;Temp;Humidity;BMP_temperature;BMP_pressure;BME280_temperature;BME280_humidity;BME280_pressure;Samples;Min_cycle;Max_cycle;Signal;HPM_P1;HPM_P2
2023/04/01 00:00:20;;;;;;;0.40;0.40;;;9.80;99.90;;;;;;5100678;27;20047;-82
2023/04/01 00:02:46;;;;;;;;;;;9.80;99.90;;;;;;5092397;28;20080;-81
2023/04/01 00:05:12;;;;;;;0.32;0.32;;;9.80;99.90;;;;;;5084153;28;19970;-82
2023/04/01 00:07:39;;;;;;;0.70;0.70;;;9.50;99.90;;;;;;5103941;28;20048;-82
2023/04/01 00:10:10;;;;;;;0.30;0.30;;;9.80;99.90;;;;;;5073600;28;20056;-82
2023/04/01 00:12:36;;;;;;;0.20;0.20;;;9.80;99.90;;;;;;5095557;28;20051;-82
2023/04/01 00:15:05;;;;;;;0.20;0.20;;;9.80;99.90;;;;;;5070892;27;20062;-82
2023/04/01 00:17:31;;;;;;;0.30;0.30;;;9.80;99.90;;;;;;5063202;28;20445;-82
2023/04/01 00:19:56;;;;;;;0.30;0.30;;;9.80;99.90;;;;;;5079365;28;20467;-82
2023/04/01 00:22:23;;;;;;;0.30;0.30;;;9.80;99.90;;;;;;5089758;28;20051;-82
2023/04/01 00:24:49;;;;;;;0.30;0.30;;;9.80;99.90;;;;;;5102695;27;20088;-82
2023/04/01 00:27:15;;;;;;;0.35;0.35;;;9.70;99.90;;;;;;5095268;28;20052;-82
2023/04/01 00:29:46;;;;;;;0.30;0.30;;;9.80;99.90;;;;;;5093571;28;20039;-81
2023/04/01 00:32:12;;;;;;;0.40;0.40;;;9.80;99.90;;;;;;5079078;27;20069;-81
2023/04/01 00:34:39;;;;;;;0.40;0.40;;;9.80;99.90;;;;;;5100468;28;20100;-82
2023/04/01 00:37:06;;;;;;;0.30;0.30;;;9.80;99.90;;;;;;5092834;28;20040;-83
2023/04/01 00:39:32;;;;;;;0.40;0.40;;;9.70;99.90;;;;;;5074743;28;20052;-83
2023/04/01 00:41:59;;;;;;;0.35;0.35;;;9.80;99.90;;;;;;5093949;28;20048;-83
2023/04/01 00:44:34;;;;;;;0.35;0.35;;;9.70;99.90;;;;;;5089692;28;20062;-82
2023/04/01 00:47:00;;;;;;;0.30;0.30;;;9.70;99.90;;;;;;5098766;27;20039;-82
2023/04/01 00:49:35;;;;;;;0.30;0.30;;;9.70;99.90;;;;;;5077063;27;20185;-82
2023/04/01 00:52:03;;;;;;;0.30;0.30;;;9.70;99.90;;;;;;5091034;28;20456;-82
2023/04/01 00:54:31;;;;;;;0.40;0.40;;;9.70;99.90;;;;;;5088818;28;20039;-82
2023/04/01 00:57:03;;;;;;;0.32;0.32;;;9.70;99.90;;;;;;5075430;28;20040;-82
2023/04/01 00:59:47;;;;;;;0.30;0.30;;;9.70;99.90;;;;;;5100374;28;20036;-82
2023/04/01 01:02:14;;;;;;;0.30;0.30;;;9.70;99.90;;;;;;5091544;28;20397;-82
2023/04/01 01:04:40;;;;;;;0.40;0.40;;;9.70;99.90;;;;;;5100618;27;20472;-82
2023/04/01 01:07:19;;;;;;;0.82;0.82;;;9.70;99.90;;;;;;5075858;28;20135;-82
2023/04/01 01:10:00;;;;;;;0.30;0.30;;;9.70;99.90;;;;;;5080757;28;20497;-82
2023/04/01 01:12:46;;;;;;;0.30;0.30;;;9.70;99.90;;;;;;5072933;28;20043;-82
2023/04/01 01:15:24;;;;;;;0.30;0.30;;;9.70;99.90;;;;;;5092802;28;20384;-83
2023/04/01 01:18:11;;;;;;;0.28;0.28;;;9.70;99.90;;;;;;5075871;28;20650;-83
2023/04/01 01:21:11;;;;;;;0.30;0.30;;;9.70;99.90;;;;;;5090117;28;20211;-82
2023/04/01 01:23:37;;;;;;;0.30;0.30;;;9.70;99.90;;;;;;5092380;28;20058;-82
2023/04/01 01:26:30;;;;;;;0.32;0.32;;;9.70;99.90;;;;;;5102492;28;20040;-84
2023/04/01 01:29:16;;;;;;;0.30;0.30;;;9.70;99.90;;;;;;5091090;28;20062;-82
2023/04/01 01:32:11;;;;;;;1.05;1.05;;;9.70;99.90;;;;;;5089979;28;20051;-82
2023/04/01 01:35:07;;;;;;;0.20;0.20;;;9.70;99.90;;;;;;5081851;27;20047;-82
2023/04/01 01:37:33;;;;;;;0.38;0.38;;;9.70;99.90;;;;;;5098396;27;20445;-82
2023/04/01 01:40:01;;;;;;;;;;;9.70;99.90;;;;;;5078250;28;20397;-82
2023/04/01 01:42:29;;;;;;;0.40;0.40;;;9.70;99.90;;;;;;5078579;28;19930;-82
2023/04/01 01:44:59;;;;;;;0.40;0.40;;;9.70;99.90;;;;;;5092724;28;20122;-83
2023/04/01 01:47:33;;;;;;;0.30;0.30;;;9.70;99.90;;;;;;5075876;28;20047;-83
2023/04/01 01:50:01;;;;;;;0.30;0.30;;;9.70;99.90;;;;;;5083328;27;20042;-83
2023/04/01 01:52:28;;;;;;;0.20;0.20;;;9.70;99.90;;;;;;5091861;27;20039;-83
2023/04/01 01:54:56;;;;;;;0.40;0.40;;;9.70;99.90;;;;;;5071195;28;20397;-83
2023/04/01 01:57:32;;;;;;;0.30;0.30;;;9.70;99.90;;;;;;5091636;27;20039;-83
2023/04/01 02:00:00;;;;;;;;;;;9.70;99.90;;;;;;5095667;28;20046;-84
2023/04/01 02:02:27;;;;;;;0.32;0.32;;;9.70;99.90;;;;;;5092954;28;20242;-83
2023/04/01 02:04:53;;;;;;;0.30;0.30;;;9.70;99.90;;;;;;5075664;28;20044;-83
2023/04/01 02:07:25;;;;;;;0.30;0.30;;;9.70;99.90;;;;;;5094805;28;20042;-83
2023/04/01 02:09:51;;;;;;;0.30;0.30;;;9.70;99.90;;;;;;5082707;28;21283;-83
2023/04/01 02:12:20;;;;;;;0.47;0.47;;;9.70;99.90;;;;;;5066638;28;20638;-83
2023/04/01 02:15:00;;;;;;;0.47;0.47;;;9.70;99.90;;;;;;5096691;28;20054;-83
2023/04/01 02:17:29;;;;;;;0.30;0.30;;;9.70;99.90;;;;;;5094106;28;20434;-80
2023/04/01 02:20:10;;;;;;;0.30;0.30;;;9.70;99.90;;;;;;5075534;28;20071;-83
2023/04/01 02:22:44;;;;;;;0.30;0.30;;;9.70;99.90;;;;;;5104966;28;20043;-84
2023/04/01 02:25:17;;;;;;;0.30;0.30;;;9.70;99.90;;;;;;5082402;28;20048;-83
2023/04/01 02:27:45;;;;;;;0.30;0.30;;;9.70;99.90;;;;;;5086944;28;20385;-83
2023/04/01 02:30:13;;;;;;;0.40;0.40;;;9.70;99.90;;;;;;5086603;28;20036;-83
2023/04/01 02:32:39;;;;;;;0.22;0.22;;;9.70;99.90;;;;;;5075528;28;20044;-83
2023/04/01 02:35:10;;;;;;;0.57;0.57;;;9.60;99.90;;;;;;5102312;28;20037;-83
2023/04/01 02:37:37;;;;;;;0.30;0.30;;;9.60;99.90;;;;;;5087017;28;20134;-83
2023/04/01 02:40:09;;;;;;;0.40;0.40;;;9.60;99.90;;;;;;5086613;28;20039;-82
2023/04/01 02:42:35;;;;;;;0.30;0.30;;;9.60;99.90;;;;;;5087110;28;20040;-83
2023/04/01 02:45:01;;;;;;;0.40;0.40;;;9.60;99.90;;;;;;5086684;28;20035;-82
2023/04/01 02:47:27;;;;;;;0.40;0.40;;;9.60;99.90;;;;;;5085670;28;20273;-82
2023/04/01 02:49:58;;;;;;;0.30;0.30;;;9.50;99.90;;;;;;5054456;28;20068;-83
2023/04/01 02:52:30;;;;;;;0.32;0.32;;;9.60;99.90;;;;;;5051512;28;20509;-83
2023/04/01 02:54:56;;;;;;;0.40;0.40;;;9.60;99.90;;;;;;5088818;28;20032;-83
2023/04/01 02:57:22;;;;;;;0.40;0.40;;;9.60;99.90;;;;;;5093849;28;20040;-83
2023/04/01 02:59:48;;;;;;;0.43;0.43;;;9.60;99.90;;;;;;5095021;28;20051;-83
2023/04/01 03:02:14;;;;;;;1.05;1.05;;;9.50;99.90;;;;;;5070274;28;20039;-83
2023/04/01 03:04:40;;;;;;;0.30;0.30;;;9.60;99.90;;;;;;5077894;28;20081;-83
2023/04/01 03:07:06;;;;;;;0.20;0.20;;;9.60;99.90;;;;;;5086076;28;20392;-82
2023/04/01 03:09:32;;;;;;;0.40;0.40;;;9.50;99.90;;;;;;5088199;28;20501;-83
2023/04/01 03:11:58;;;;;;;0.70;0.70;;;9.50;99.90;;;;;;5095142;28;20076;-83
2023/04/01 03:14:23;;;;;;;0.30;0.30;;;9.50;99.90;;;;;;5090433;28;20032;-83
2023/04/01 03:16:49;;;;;;;0.32;0.32;;;9.50;99.90;;;;;;5088381;28;20044;-83
2023/04/01 03:19:15;;;;;;;0.50;0.50;;;9.40;99.90;;;;;;5087409;28;20032;-82
2023/04/01 03:21:40;;;;;;;0.60;0.60;;;9.40;99.90;;;;;;5087460;28;20036;-83
2023/04/01 03:24:07;;;;;;;0.45;0.45;;;9.40;99.90;;;;;;5088932;28;20463;-82
2023/04/01 03:26:33;;;;;;;0.30;0.30;;;9.40;99.90;;;;;;5088073;28;20173;-82
2023/04/01 03:28:59;;;;;;;0.20;0.20;;;9.40;99.90;;;;;;5067772;28;20542;-82
2023/04/01 03:31:25;;;;;;;0.50;0.50;;;9.30;99.90;;;;;;5068318;28;20166;-82
2023/04/01 03:33:51;;;;;;;0.40;0.40;;;9.30;99.90;;;;;;5072503;28;20032;-82
2023/04/01 03:36:17;;;;;;;0.40;0.40;;;9.30;99.90;;;;;;5070653;28;20536;-82
2023/04/01 03:38:44;;;;;;;0.68;0.68;;;9.30;99.90;;;;;;5089549;28;20473;-82
2023/04/01 03:41:15;;;;;;;0.30;0.30;;;9.40;99.90;;;;;;5090173;28;20494;-82
2023/04/01 03:43:40;;;;;;;0.40;0.40;;;9.30;99.90;;;;;;5088385;28;20051;-82
2023/04/01 03:46:06;;;;;;;0.40;0.40;;;9.30;99.90;;;;;;5070305;28;20047;-82
2023/04/01 03:48:32;;;;;;;0.40;0.40;;;9.30;99.90;;;;;;5088616;28;20046;-84
2023/04/01 03:50:57;;;;;;;0.40;0.40;;;9.30;99.90;;;;;;5071697;28;20036;-84
2023/04/01 03:53:23;;;;;;;0.40;0.40;;;9.30;99.90;;;;;;5087628;28;20082;-83
2023/04/01 03:55:51;;;;;;;0.40;0.40;;;9.30;99.90;;;;;;5069140;28;20036;-84
2023/04/01 03:58:17;;;;;;;0.40;0.40;;;9.30;99.90;;;;;;5069680;28;20071;-84
2023/04/01 04:00:43;;;;;;;0.40;0.40;;;9.30;99.90;;;;;;5097783;28;20094;-84
2023/04/01 04:03:08;;;;;;;0.30;0.30;;;9.30;99.90;;;;;;5087249;28;20428;-84
2023/04/01 04:05:34;;;;;;;0.40;0.40;;;9.30;99.90;;;;;;5056157;28;20277;-84
2023/04/01 04:08:00;;;;;;;0.32;0.32;;;9.30;99.90;;;;;;5067313;28;20482;-83
2023/04/01 04:10:26;;;;;;;0.50;0.50;;;9.40;99.90;;;;;;5085099;28;20131;-83
2023/04/01 04:12:52;;;;;;;0.40;0.40;;;9.40;99.90;;;;;;5077802;28;20067;-82
2023/04/01 04:15:18;;;;;;;0.40;0.40;;;9.20;99.90;;;;;;5092686;28;20035;-83
2023/04/01 04:17:45;;;;;;;0.40;0.40;;;9.40;99.90;;;;;;5086196;28;20032;-82
2023/04/01 04:20:11;;;;;;;0.50;0.50;;;9.40;99.90;;;;;;5099592;28;20040;-82
2023/04/01 04:22:37;;;;;;;0.40;0.40;;;9.40;99.90;;;;;;5098314;28;20036;-84
2023/04/01 04:25:03;;;;;;;0.30;0.30;;;9.40;99.90;;;;;;5085740;28;20034;-83
2023/04/01 04:27:28;;;;;;;0.30;0.30;;;9.40;99.90;;;;;;5089876;28;20531;-83
2023/04/01 04:29:54;;;;;;;0.30;0.30;;;9.40;99.90;;;;;;5054562;28;20118;-82
2023/04/01 04:32:20;;;;;;;0.30;0.30;;;9.40;99.90;;;;;;5099766;28;20056;-83
2023/04/01 04:34:45;;;;;;;0.50;0.50;;;9.40;99.90;;;;;;5070735;28;20119;-81
2023/04/01 04:37:11;;;;;;;0.47;0.47;;;9.40;99.90;;;;;;5090026;28;20031;-81
2023/04/01 04:39:37;;;;;;;0.40;0.40;;;9.40;99.90;;;;;;5088917;28;20050;-83
2023/04/01 04:42:02;;;;;;;0.20;0.20;;;9.40;99.90;;;;;;5073517;28;20484;-81
2023/04/01 04:44:28;;;;;;;0.30;0.30;;;9.40;99.90;;;;;;5074394;28;20453;-81
2023/04/01 04:46:54;;;;;;;0.40;0.40;;;9.40;99.90;;;;;;5070399;27;20125;-81
2023/04/01 04:49:19;;;;;;;0.30;0.30;;;9.40;99.90;;;;;;5100511;28;20069;-82
2023/04/01 04:51:45;;;;;;;0.40;0.40;;;9.50;99.90;;;;;;5103772;27;20039;-83
2023/04/01 04:54:11;;;;;;;0.20;0.20;;;9.40;99.90;;;;;;5087584;27;20389;-82
2023/04/01 04:56:36;;;;;;;0.38;0.38;;;9.40;99.90;;;;;;5096273;28;20043;-82
2023/04/01 04:59:02;;;;;;;0.38;0.38;;;9.40;99.90;;;;;;5077976;28;20188;-82
2023/04/01 05:01:28;;;;;;;0.30;0.30;;;9.50;99.90;;;;;;5080619;28;20078;-82
2023/04/01 05:03:57;;;;;;;0.40;0.40;;;9.50;99.90;;;;;;5096495;27;20114;-82
2023/04/01 05:06:25;;;;;;;0.35;0.35;;;9.50;99.90;;;;;;5093892;28;20139;-83
2023/04/01 05:08:51;;;;;;;0.40;0.40;;;9.50;99.90;;;;;;5090106;28;20131;-83
2023/04/01 05:11:18;;;;;;;0.40;0.40;;;9.40;99.90;;;;;;5069362;28;20120;-83
2023/04/01 05:13:45;;;;;;;0.30;0.30;;;9.50;99.90;;;;;;5065522;28;20035;-82
2023/04/01 05:16:16;;;;;;;0.40;0.40;;;9.50;99.90;;;;;;5093813;28;20036;-82
2023/04/01 05:18:42;;;;;;;0.50;0.50;;;9.50;99.90;;;;;;5092374;28;20046;-82
2023/04/01 05:21:11;;;;;;;0.40;0.40;;;9.50;99.90;;;;;;5087361;28;20040;-83
2023/04/01 05:23:37;;;;;;;0.45;0.45;;;9.50;99.90;;;;;;5092473;28;20047;-81
2023/04/01 05:26:05;;;;;;;0.40;0.40;;;9.50;99.90;;;;;;5090672;28;20028;-82
2023/04/01 05:28:31;;;;;;;0.30;0.30;;;9.50;99.90;;;;;;5090139;28;20052;-82
2023/04/01 05:31:00;;;;;;;0.30;0.30;;;9.50;99.90;;;;;;5071652;28;20456;-83
2023/04/01 05:33:26;;;;;;;0.40;0.40;;;9.50;99.90;;;;;;5087120;28;20048;-84
2023/04/01 05:35:52;;;;;;;;;;;9.50;99.90;;;;;;5088383;28;20059;-84
2023/04/01 05:38:18;;;;;;;0.25;0.25;;;9.60;99.90;;;;;;5072316;28;20392;-83
2023/04/01 05:40:43;;;;;;;0.30;0.30;;;9.60;99.90;;;;;;5081763;28;20108;-83
2023/04/01 05:43:09;;;;;;;0.30;0.30;;;9.60;99.90;;;;;;5099661;28;20043;-81
2023/04/01 05:45:35;;;;;;;0.40;0.40;;;9.60;99.90;;;;;;5084885;28;20123;-82
2023/04/01 05:48:01;;;;;;;0.43;0.43;;;9.60;99.90;;;;;;5090562;28;20044;-82
2023/04/01 05:50:26;;;;;;;0.30;0.30;;;9.60;99.90;;;;;;5094330;28;20067;-82
2023/04/01 05:52:53;;;;;;;0.38;0.38;;;9.60;99.90;;;;;;5094870;28;20036;-82
2023/04/01 05:55:18;;;;;;;0.30;0.30;;;9.60;99.90;;;;;;5073426;28;20066;-82
2023/04/01 05:57:46;;;;;;;0.40;0.40;;;9.70;99.90;;;;;;5100093;28;20063;-82
2023/04/01 06:00:12;;;;;;;0.40;0.40;;;9.70;99.90;;;;;;5085229;28;20036;-82
2023/04/01 06:02:38;;;;;;;0.40;0.40;;;9.70;99.90;;;;;;5091747;28;20043;-81
2023/04/01 06:05:23;;;;;;;0.45;0.45;;;9.70;99.90;;;;;;5090304;28;20085;-82
2023/04/01 06:07:55;;;;;;;0.30;0.30;;;9.80;99.90;;;;;;5071012;28;20035;-83
2023/04/01 06:10:22;;;;;;;0.40;0.40;;;9.80;99.90;;;;;;5100223;28;20055;-83
2023/04/01 06:13:06;;;;;;;0.63;0.63;;;9.80;99.90;;;;;;5057855;28;20039;-83
2023/04/01 06:15:47;;;;;;;0.30;0.30;;;9.80;99.90;;;;;;5082774;28;20661;-82
2023/04/01 06:18:54;;;;;;;0.30;0.30;;;9.90;99.90;;;;;;5078449;28;20071;-82
2023/04/01 06:21:22;;;;;;;0.40;0.40;;;9.90;99.90;;;;;;5084447;28;20054;-82
2023/04/01 06:24:27;;;;;;;0.40;0.40;;;9.90;99.90;;;;;;5086118;28;20108;-80
2023/04/01 06:27:43;;;;;;;0.30;0.30;;;9.90;99.90;;;;;;5089837;28;20031;-83
2023/04/01 06:30:27;;;;;;;0.20;0.20;;;10.00;99.90;;;;;;5021383;28;20371;-82
2023/04/01 06:33:14;;;;;;;0.30;0.30;;;9.90;99.90;;;;;;5093847;28;20077;-82
2023/04/01 06:35:52;;;;;;;0.65;0.65;;;10.00;99.90;;;;;;5072799;28;20569;-83
2023/04/01 06:38:36;;;;;;;0.40;0.40;;;10.00;99.90;;;;;;5072397;28;20048;-83
2023/04/01 06:41:14;;;;;;;0.98;0.98;;;10.00;99.90;;;;;;5086275;28;20069;-82
2023/04/01 06:44:21;;;;;;;0.52;0.52;;;10.00;99.90;;;;;;5089417;28;20393;-83
2023/04/01 06:46:58;;;;;;;0.47;0.47;;;10.00;99.90;;;;;;5073449;28;20056;-82
2023/04/01 06:49:49;;;;;;;0.70;0.70;;;10.10;99.90;;;;;;5091679;28;20392;-85
2023/04/01 06:52:21;;;;;;;0.30;0.30;;;10.10;99.90;;;;;;5088220;28;20127;-82
2023/04/01 06:55:01;;;;;;;0.55;0.50;;;10.10;99.90;;;;;;5084297;28;20036;-83
2023/04/01 06:57:36;;;;;;;1.05;0.95;;;10.10;99.90;;;;;;5068207;28;20089;-84
2023/04/01 07:00:12;;;;;;;0.73;0.73;;;10.20;99.90;;;;;;5096821;28;20051;-84
2023/04/01 07:02:55;;;;;;;1.90;1.73;;;10.20;99.90;;;;;;5086528;28;20370;-83
2023/04/01 07:05:23;;;;;;;0.30;0.30;;;10.20;99.90;;;;;;5090756;28;20044;-84
2023/04/01 07:07:53;;;;;;;0.30;0.30;;;10.20;99.90;;;;;;5064514;28;20043;-84
2023/04/01 07:10:57;;;;;;;0.40;0.40;;;10.20;99.90;;;;;;5072578;28;20391;-86
2023/04/01 07:13:39;;;;;;;0.40;0.40;;;10.20;99.90;;;;;;5051181;28;20079;-85
2023/04/01 07:16:35;;;;;;;0.43;0.43;;;10.30;99.90;;;;;;5068030;28;20050;-86
2023/04/01 07:19:29;;;;;;;0.40;0.40;;;10.30;99.90;;;;;;5071755;28;20036;-85
2023/04/01 07:22:05;;;;;;;0.30;0.30;;;10.30;99.90;;;;;;5050498;28;20063;-86
2023/04/01 07:24:37;;;;;;;0.30;0.30;;;10.40;99.90;;;;;;5062434;28;20041;-84
2023/04/01 07:27:09;;;;;;;1.65;0.90;;;10.40;99.90;;;;;;5077479;28;20043;-86
2023/04/01 07:29:35;;;;;;;0.60;0.50;;;10.60;99.90;;;;;;5067691;28;20048;-86
2023/04/01 07:32:31;;;;;;;0.40;0.40;;;10.70;99.90;;;;;;5067424;28;20040;-86
2023/04/01 07:35:04;;;;;;;0.30;0.30;;;10.70;99.90;;;;;;5069763;28;20044;-85
2023/04/01 07:38:15;;;;;;;0.40;0.40;;;10.80;99.90;;;;;;5063248;28;20036;-84
2023/04/01 07:40:56;;;;;;;0.32;0.32;;;10.90;99.90;;;;;;5027034;28;20045;-83
2023/04/01 07:43:36;;;;;;;3.33;1.50;;;11.00;99.90;;;;;;5015775;28;20037;-86
2023/04/01 07:46:38;;;;;;;0.38;0.38;;;11.00;99.90;;;;;;5050753;28;20109;-84
2023/04/01 07:49:16;;;;;;;0.40;0.40;;;11.20;99.90;;;;;;5064293;28;20075;-85
2023/04/01 07:52:08;;;;;;;0.30;0.30;;;11.30;99.90;;;;;;5066277;28;20050;-86
2023/04/01 07:55:03;;;;;;;0.47;0.47;;;11.30;99.90;;;;;;5064460;28;20129;-84
2023/04/01 07:57:40;;;;;;;0.52;0.52;;;11.30;99.90;;;;;;5062820;28;20490;-84
2023/04/01 08:00:29;;;;;;;0.50;0.50;;;11.30;99.90;;;;;;5070060;28;20528;-86
2023/04/01 08:02:58;;;;;;;0.20;0.20;;;11.30;99.90;;;;;;5064588;28;20067;-85
2023/04/01 08:05:33;;;;;;;0.20;0.20;;;11.40;99.90;;;;;;5067947;28;20275;-85
2023/04/01 08:08:08;;;;;;;0.65;0.65;;;11.40;99.90;;;;;;5065233;28;20036;-84
2023/04/01 08:11:03;;;;;;;0.63;0.43;;;11.40;99.90;;;;;;5093918;28;20094;-85
2023/04/01 08:13:38;;;;;;;1.77;0.85;;;11.60;99.90;;;;;;5078493;28;20051;-86
2023/04/01 08:16:36;;;;;;;0.88;0.88;;;11.70;99.90;;;;;;5090450;28;20096;-85
2023/04/01 08:19:28;;;;;;;;;;;11.90;99.90;;;;;;5095189;28;20046;-86
2023/04/01 08:21:58;;;;;;;0.30;0.30;;;12.10;99.90;;;;;;5064646;28;20300;-86
2023/04/01 08:24:41;;;;;;;0.20;0.20;;;12.00;99.90;;;;;;5081405;28;20051;-85
2023/04/01 08:27:21;;;;;;;1.35;1.02;;;12.00;99.90;;;;;;5100435;28;20147;-88
2023/04/01 08:30:01;;;;;;;1.75;0.40;;;11.90;99.90;;;;;;5068648;27;20535;-86
2023/04/01 08:32:55;;;;;;;0.28;0.28;;;11.80;99.90;;;;;;5085112;28;20090;-87
2023/04/01 08:35:37;;;;;;;0.77;0.77;;;11.80;99.90;;;;;;5091850;27;20056;-86
2023/04/01 08:38:21;;;;;;;0.52;0.45;;;11.80;99.90;;;;;;5098501;28;20043;-87
2023/04/01 08:41:04;;;;;;;0.25;0.25;;;11.80;99.90;;;;;;5095475;27;20050;-85
2023/04/01 08:43:35;;;;;;;0.60;0.60;;;11.70;99.90;;;;;;5098554;27;20497;-85
2023/04/01 08:46:20;;;;;;;0.50;0.50;;;11.70;99.90;;;;;;5103367;27;20042;-85
2023/04/01 08:49:12;;;;;;;0.90;0.90;;;11.60;99.90;;;;;;5092408;28;20046;-86
2023/04/01 08:52:05;;;;;;;0.40;0.40;;;11.60;99.90;;;;;;5100516;27;20051;-86
2023/04/01 08:54:55;;;;;;;0.95;0.95;;;11.40;99.90;;;;;;5093859;27;20457;-85
2023/04/01 08:57:35;;;;;;;0.50;0.50;;;11.10;99.90;;;;;;5084740;27;20039;-87
2023/04/01 09:00:22;;;;;;;0.80;0.80;;;11.00;99.90;;;;;;5098166;28;20043;-86
2023/04/01 09:03:26;;;;;;;0.40;0.40;;;11.00;99.90;;;;;;5096756;27;20047;-86
2023/04/01 09:06:12;;;;;;;0.88;0.88;;;10.90;99.90;;;;;;5076188;28;20426;-84
2023/04/01 09:09:05;;;;;;;0.40;0.40;;;10.70;99.90;;;;;;5087559;28;20074;-85
2023/04/01 09:12:09;;;;;;;0.47;0.47;;;10.60;99.90;;;;;;5064019;28;20057;-87
2023/04/01 09:14:56;;;;;;;1.52;1.42;;;10.40;99.90;;;;;;5096989;28;20067;-85
2023/04/01 09:17:25;;;;;;;0.70;0.70;;;10.20;99.90;;;;;;5055011;28;20087;-87
2023/04/01 09:19:56;;;;;;;0.50;0.50;;;10.20;99.90;;;;;;5096681;28;20051;-85
2023/04/01 09:22:25;;;;;;;0.63;0.63;;;10.20;99.90;;;;;;5094319;27;20058;-86
2023/04/01 09:25:00;;;;;;;0.30;0.30;;;10.40;99.90;;;;;;5099077;28;20347;-85
2023/04/01 09:27:43;;;;;;;1.27;0.63;;;10.60;99.90;;;;;;5097637;28;20051;-86
2023/04/01 09:30:32;;;;;;;0.30;0.30;;;10.80;99.90;;;;;;5096683;28;20043;-85
2023/04/01 09:33:37;;;;;;;0.30;0.30;;;11.00;99.90;;;;;;5095441;28;20397;-85
2023/04/01 09:36:46;;;;;;;0.30;0.30;;;10.90;99.90;;;;;;5094021;28;20071;-85
2023/04/01 09:39:38;;;;;;;0.20;0.20;;;10.80;99.90;;;;;;5072325;28;20055;-85
2023/04/01 09:42:34;;;;;;;0.32;0.32;;;10.70;99.90;;;;;;5088070;28;20039;-86
2023/04/01 09:45:21;;;;;;;0.40;0.40;;;10.60;99.90;;;;;;5094798;28;20047;-85
2023/04/01 09:48:25;;;;;;;1.13;0.70;;;10.60;99.90;;;;;;5091297;28;20046;-85
2023/04/01 09:51:09;;;;;;;0.32;0.32;;;10.50;99.90;;;;;;5049231;28;20484;-86
2023/04/01 09:53:57;;;;;;;0.32;0.32;;;10.60;99.90;;;;;;5088709;28;20039;-85
2023/04/01 09:56:53;;;;;;;1.67;1.58;;;10.60;99.90;;;;;;5096397;28;20225;-85
2023/04/01 09:59:47;;;;;;;1.08;1.08;;;10.60;99.90;;;;;;5090728;28;20563;-86
2023/04/01 10:02:34;;;;;;;0.30;0.30;;;10.40;99.90;;;;;;5076694;27;20043;-85
2023/04/01 10:05:18;;;;;;;0.30;0.30;;;10.30;99.90;;;;;;5076243;28;20365;-86
2023/04/01 10:08:20;;;;;;;0.30;0.30;;;10.30;99.90;;;;;;5094663;28;20115;-85
2023/04/01 10:11:08;;;;;;;0.30;0.30;;;10.30;99.90;;;;;;5095953;28;20036;-85
2023/04/01 10:13:52;;;;;;;0.35;0.35;;;10.30;99.90;;;;;;5096803;28;20050;-85
2023/04/01 10:17:08;;;;;;;0.28;0.28;;;10.20;99.90;;;;;;5106604;27;20067;-86
2023/04/01 10:19:37;;;;;;;0.70;0.70;;;10.20;99.90;;;;;;5008679;28;20041;-85
2023/04/01 10:22:27;;;;;;;0.93;0.93;;;10.20;99.90;;;;;;5084010;28;20467;-85
2023/04/01 10:25:30;;;;;;;0.40;0.40;;;10.10;99.90;;;;;;5096202;27;20035;-85
2023/04/01 10:28:17;;;;;;;0.30;0.30;;;10.20;99.90;;;;;;5094687;28;20044;-85
2023/04/01 10:30:45;;;;;;;0.30;0.30;;;10.10;99.90;;;;;;5094310;28;20043;-86
2023/04/01 10:33:33;;;;;;;0.57;0.57;;;9.90;99.90;;;;;;5069609;28;20039;-84
2023/04/01 10:36:17;;;;;;;0.30;0.30;;;9.80;99.90;;;;;;5092793;28;20096;-85
2023/04/01 10:38:45;;;;;;;0.30;0.30;;;9.80;99.90;;;;;;5096620;27;20066;-84
2023/04/01 10:41:28;;;;;;;0.30;0.30;;;9.80;99.90;;;;;;5092609;28;20427;-85
2023/04/01 10:44:18;;;;;;;0.30;0.30;;;10.00;99.90;;;;;;5078300;28;20039;-85
2023/04/01 10:47:02;;;;;;;0.40;0.40;;;10.20;99.90;;;;;;5091776;28;20125;-85
2023/04/01 10:49:53;;;;;;;0.30;0.30;;;10.30;99.90;;;;;;5098140;28;20524;-84
2023/04/01 10:52:37;;;;;;;0.82;0.82;;;10.10;99.90;;;;;;5097297;28;20082;-85
2023/04/01 10:55:27;;;;;;;0.38;0.38;;;10.00;99.90;;;;;;5089849;27;20477;-87
2023/04/01 10:58:31;;;;;;;0.32;0.32;;;9.90;99.90;;;;;;5086372;28;20054;-84
2023/04/01 11:01:25;;;;;;;0.50;0.50;;;9.80;99.90;;;;;;5081000;28;20130;-85
2023/04/01 11:04:26;;;;;;;0.35;0.35;;;9.80;99.90;;;;;;5063239;28;20040;-85
2023/04/01 11:07:10;;;;;;;0.40;0.40;;;9.90;99.90;;;;;;5080838;28;20508;-84
2023/04/01 11:09:53;;;;;;;0.55;0.55;;;9.90;99.90;;;;;;5090540;28;20048;-85
2023/04/01 11:12:42;;;;;;;0.60;0.60;;;10.00;99.90;;;;;;5087903;27;20529;-85
2023/04/01 11:15:16;;;;;;;;;;;10.00;99.90;;;;;;5090038;28;20071;-86
2023/04/01 11:17:56;;;;;;;0.32;0.32;;;10.20;99.90;;;;;;5092965;28;20011;-86
2023/04/01 11:20:41;;;;;;;0.40;0.40;;;10.40;99.90;;;;;;5105087;28;20051;-85
2023/04/01 11:23:09;;;;;;;0.30;0.30;;;10.60;99.90;;;;;;5072864;28;20050;-86
2023/04/01 11:25:47;;;;;;;0.40;0.40;;;10.60;99.90;;;;;;5091510;28;20099;-85
2023/04/01 11:28:35;;;;;;;0.30;0.30;;;10.60;99.90;;;;;;5068444;28;20044;-85
2023/04/01 11:31:19;;;;;;;0.22;0.22;;;10.60;99.90;;;;;;5095171;28;20456;-84
2023/04/01 11:34:11;;;;;;;0.30;0.30;;;10.60;99.90;;;;;;5092125;28;20114;-87
2023/04/01 11:36:49;;;;;;;0.20;0.20;;;10.70;99.90;;;;;;5088827;28;20032;-85
2023/04/01 11:39:33;;;;;;;0.30;0.30;;;10.70;99.90;;;;;;5110712;28;20102;-85
2023/04/01 11:42:21;;;;;;;0.30;0.30;;;10.70;99.90;;;;;;5093405;28;20060;-86
2023/04/01 11:45:20;;;;;;;0.30;0.30;;;10.60;99.90;;;;;;5088111;28;20385;-85
2023/04/01 11:48:16;;;;;;;0.38;0.38;;;10.60;99.90;;;;;;5074446;28;20047;-85
2023/04/01 11:51:27;;;;;;;0.68;0.68;;;10.70;99.90;;;;;;5094186;28;20516;-85
2023/04/01 11:54:08;;;;;;;0.30;0.30;;;10.80;99.90;;;;;;5106765;27;20401;-85
2023/04/01 11:56:44;;;;;;;0.30;0.30;;;10.90;99.90;;;;;;5102727;28;20055;-84
2023/04/01 11:59:28;;;;;;;0.40;0.40;;;10.80;99.90;;;;;;5108025;28;20133;-85
2023/04/01 12:01:54;;;;;;;0.40;0.40;;;10.70;99.90;;;;;;5102525;28;20079;-87
2023/04/01 12:04:25;;;;;;;0.28;0.28;;;10.70;99.90;;;;;;5100589;28;20601;-85
2023/04/01 12:07:01;;;;;;;0.40;0.40;;;10.70;99.90;;;;;;5090839;28;20047;-85
2023/04/01 12:09:49;;;;;;;0.30;0.30;;;10.70;99.90;;;;;;5085692;28;20125;-85
2023/04/01 12:12:40;;;;;;;0.52;0.52;;;10.70;99.90;;;;;;5081389;28;20043;-85
2023/04/01 12:15:14;;;;;;;0.20;0.20;;;10.70;99.90;;;;;;5109363;28;20044;-86
2023/04/01 12:17:48;;;;;;;0.30;0.30;;;10.70;99.90;;;;;;5089462;28;20055;-85
2023/04/01 12:20:40;;;;;;;0.30;0.30;;;10.50;99.90;;;;;;5084916;28;20082;-86
2023/04/01 12:23:37;;;;;;;1.65;0.68;;;10.60;99.90;;;;;;5094395;28;20075;-85
2023/04/01 12:26:21;;;;;;;0.40;0.40;;;10.60;99.90;;;;;;5081869;28;20505;-85
2023/04/01 12:28:56;;;;;;;0.32;0.32;;;10.70;99.90;;;;;;5105540;27;20555;-86
2023/04/01 12:31:47;;;;;;;0.20;0.20;;;10.60;99.90;;;;;;5104185;27;20095;-86
2023/04/01 12:34:35;;;;;;;0.35;0.35;;;10.60;99.90;;;;;;5101627;28;20074;-85
2023/04/01 12:37:18;;;;;;;0.20;0.20;;;10.60;99.90;;;;;;5099057;28;20371;-86
2023/04/01 12:40:08;;;;;;;0.30;0.30;;;10.80;99.90;;;;;;5099778;27;20108;-84
2023/04/01 12:42:52;;;;;;;0.30;0.30;;;10.80;99.90;;;;;;5077789;27;20036;-85
2023/04/01 12:45:35;;;;;;;0.28;0.28;;;10.70;99.90;;;;;;5079662;27;20078;-86
2023/04/01 12:48:31;;;;;;;0.20;0.20;;;10.80;99.90;;;;;;5079596;28;20075;-87
2023/04/01 12:51:15;;;;;;;0.32;0.32;;;10.80;99.90;;;;;;5100526;28;20377;-86
2023/04/01 12:53:56;;;;;;;0.75;0.75;;;10.70;99.90;;;;;;5102873;28;20476;-85
2023/04/01 12:56:50;;;;;;;0.20;0.20;;;10.70;99.90;;;;;;5068903;28;20601;-85
2023/04/01 12:59:22;;;;;;;0.40;0.40;;;10.80;99.90;;;;;;5095803;27;20081;-86
2023/04/01 13:01:47;;;;;;;0.30;0.30;;;10.80;99.90;;;;;;5099395;27;20047;-86
2023/04/01 13:04:26;;;;;;;0.20;0.20;;;10.80;99.90;;;;;;5032724;27;20168;-88
2023/04/01 13:06:51;;;;;;;0.40;0.40;;;10.80;99.90;;;;;;5093310;27;20044;-84
2023/04/01 13:09:51;;;;;;;0.20;0.20;;;10.70;99.90;;;;;;5106868;27;20134;-84
2023/04/01 13:12:56;;;;;;;0.30;0.30;;;10.70;99.90;;;;;;5087181;27;20044;-85
2023/04/01 13:15:31;;;;;;;0.30;0.30;;;10.60;99.90;;;;;;5092808;27;20043;-84
2023/04/01 13:18:05;;;;;;;0.30;0.30;;;10.50;99.90;;;;;;5095140;28;20040;-85
2023/04/01 13:20:55;;;;;;;0.30;0.30;;;10.40;99.90;;;;;;5103479;27;20637;-85
2023/04/01 13:23:34;;;;;;;0.22;0.22;;;10.40;99.90;;;;;;5100457;27;20506;-86
2023/04/01 13:26:27;;;;;;;0.30;0.30;;;10.50;99.90;;;;;;5089859;28;20545;-87
2023/04/01 13:29:02;;;;;;;0.32;0.32;;;10.50;99.90;;;;;;5097295;27;20519;-85
2023/04/01 13:31:52;;;;;;;0.30;0.30;;;10.50;99.90;;;;;;5088886;28;20051;-85
2023/04/01 13:34:39;;;;;;;0.45;0.35;;;10.60;99.90;;;;;;5110903;27;20362;-86
2023/04/01 13:37:36;;;;;;;0.32;0.32;;;10.40;99.90;;;;;;5082177;28;20512;-85
2023/04/01 13:40:16;;;;;;;0.40;0.40;;;10.50;99.90;;;;;;5077413;28;20067;-85
2023/04/01 13:43:04;;;;;;;0.30;0.30;;;10.40;99.90;;;;;;5087091;28;20047;-85
2023/04/01 13:45:47;;;;;;;0.30;0.30;;;10.40;99.90;;;;;;5085749;28;20120;-84